Time;durP1;ratioP1;P1;durP2;ratioP2;P2;SDS_P1;SDS_P2;PMS_P1;PMS_P2;Temp;Humidity;BMP_temperature;BMP_pressure;BME280_temperature;BME280_humidity;BME280_pressure;Samples;Min_cycle;Max_cycle;Signal;HPM_P1;HPM_P2
2024/01/01 00:00:18;;;;;;;5.30;4.03;;;;;;;-145.63;100.00;61273.97;5070060;28;20028;-67
2024/01/01 00:02:43;;;;;;;4.25;3.10;;;;;;;-145.63;100.00;61273.97;5082262;28;20024;-67
2024/01/01 00:05:11;;;;;;;3.33;2.95;;;;;;;-145.63;100.00;61273.97;5046146;28;20025;-66
2024/01/01 00:07:36;;;;;;;3.95;3.55;;;;;;;-145.63;100.00;61273.97;5081044;28;20024;-66
2024/01/01 00:10:03;;;;;;;4.05;3.40;;;;;;;-145.63;100.00;61273.97;5083702;28;20097;-67
2024/01/01 00:12:32;;;;;;;3.58;3.05;;;;;;;-145.63;100.00;61273.97;5083898;28;20020;-67
2024/01/01 00:14:58;;;;;;;3.85;3.20;;;;;;;-145.63;100.00;61273.97;5080581;28;20085;-67
2024/01/01 00:17:24;;;;;;;3.53;3.20;;;;;;;-145.63;100.00;61273.97;5063988;28;20043;-67
2024/01/01 00:19:50;;;;;;;4.45;3.75;;;;;;;-145.63;100.00;61273.97;5064860;28;20204;-67
2024/01/01 00:22:15;;;;;;;3.67;3.28;;;;;;;-145.63;100.00;61273.97;5068396;28;20029;-67
2024/01/01 00:24:41;;;;;;;4.72;3.45;;;;;;;-145.63;100.00;61273.97;5072941;28;20021;-67
2024/01/01 00:27:07;;;;;;;3.40;3.10;;;;;;;-145.63;100.00;61273.97;5079312;28;20027;-67
2024/01/01 00:29:32;;;;;;;4.20;3.60;;;;;;;-145.63;100.00;61273.97;5063954;28;20017;-67
2024/01/01 00:31:58;;;;;;;4.30;3.90;;;;;;;-145.63;100.00;61273.97;5083529;28;20058;-66
2024/01/01 00:34:24;;;;;;;4.50;3.67;;;;;;;-145.63;100.00;61273.97;5068382;28;20036;-66
2024/01/01 00:36:49;;;;;;;4.03;3.63;;;;;;;-145.63;100.00;61273.97;5073520;28;20056;-66
2024/01/01 00:39:15;;;;;;;3.80;3.10;;;;;;;-145.63;100.00;61273.97;5077952;28;20079;-67
2024/01/01 00:41:40;;;;;;;3.63;3.33;;;;;;;-145.63;100.00;61273.97;5064295;28;20032;-67
2024/01/01 00:44:06;;;;;;;3.60;3.30;;;;;;;-145.63;100.00;61273.97;5083318;28;20020;-67
2024/01/01 00:46:32;;;;;;;3.17;2.95;;;;;;;-145.63;100.00;61273.97;5067152;28;20032;-69
2024/01/01 00:48:58;;;;;;;3.33;3.03;;;;;;;-145.63;100.00;61273.97;5056374;28;20040;-67
2024/01/01 00:51:24;;;;;;;3.85;3.45;;;;;;;-145.63;100.00;61273.97;5083055;28;20100;-67
2024/01/01 00:53:49;;;;;;;3.88;3.40;;;;;;;-145.63;100.00;61273.97;5081465;28;20029;-67
2024/01/01 00:56:15;;;;;;;3.38;3.08;;;;;;;-145.63;100.00;61273.97;5063229;28;20168;-66
2024/01/01 00:58:41;;;;;;;4.15;3.13;;;;;;;-145.63;100.00;61273.97;5080500;28;20043;-66
2024/01/01 01:01:07;;;;;;;3.30;3.00;;;;;;;-145.63;100.00;61273.97;5083117;28;20066;-67
2024/01/01 01:03:37;;;;;;;4.45;3.63;;;;;;;-145.63;100.00;61273.97;5075385;28;20024;-65
2024/01/01 01:06:03;;;;;;;3.83;2.85;;;;;;;-145.63;100.00;61273.97;5066422;28;20171;-66
2024/01/01 01:08:29;;;;;;;4.20;3.42;;;;;;;-145.63;100.00;61273.97;5082995;28;20289;-66
2024/01/01 01:10:55;;;;;;;3.42;2.95;;;;;;;-145.63;100.00;61273.97;5064718;28;20020;-66
2024/01/01 01:13:21;;;;;;;3.75;3.35;;;;;;;-145.63;100.00;61273.97;5083075;28;20087;-66
2024/01/01 01:15:47;;;;;;;3.60;3.30;;;;;;;-145.63;100.00;61273.97;5073337;28;20088;-67
2024/01/01 01:18:13;;;;;;;4.65;3.20;;;;;;;-145.63;100.00;61273.97;5067786;28;20032;-67
2024/01/01 01:20:39;;;;;;;3.63;3.10;;;;;;;-145.63;100.00;61273.97;5082660;28;20033;-67
2024/01/01 01:23:04;;;;;;;3.20;2.75;;;;;;;-145.63;100.00;61273.97;5062591;28;20355;-67
2024/01/01 01:25:31;;;;;;;4.13;3.30;;;;;;;-145.63;100.00;61273.97;5078049;28;20055;-66
2024/01/01 01:27:57;;;;;;;4.60;3.55;;;;;;;-145.63;100.00;61273.97;5071714;28;20029;-66
2024/01/01 01:30:23;;;;;;;4.78;3.50;;;;;;;-145.63;100.00;61273.97;5068043;28;20082;-67
2024/01/01 01:32:49;;;;;;;4.72;3.70;;;;;;;-145.63;100.00;61273.97;5082575;28;20028;-67
2024/01/01 01:35:14;;;;;;;3.85;3.45;;;;;;;-145.63;100.00;61273.97;5082471;28;20052;-67
2024/01/01 01:37:40;;;;;;;4.13;3.38;;;;;;;-145.63;100.00;61273.97;5065698;28;20056;-67
2024/01/01 01:40:06;;;;;;;4.32;3.72;;;;;;;-145.63;100.00;61273.97;5074270;28;20036;-67
2024/01/01 01:42:32;;;;;;;4.03;3.63;;;;;;;-145.63;100.00;61273.97;5074946;28;20028;-67
2024/01/01 01:44:57;;;;;;;3.58;3.17;;;;;;;-145.63;100.00;61273.97;5065009;28;20035;-67
2024/01/01 01:47:24;;;;;;;3.95;3.15;;;;;;;-145.63;100.00;61273.97;5082288;28;20329;-66
2024/01/01 01:49:51;;;;;;;3.85;3.45;;;;;;;-145.63;100.00;61273.97;5073978;28;20053;-67
2024/01/01 01:52:16;;;;;;;3.78;3.33;;;;;;;-145.63;100.00;61273.97;5082357;28;20040;-67
2024/01/01 01:54:45;;;;;;;4.50;3.38;;;;;;;-145.63;100.00;61273.97;5073733;28;20025;-68
2024/01/01 01:57:14;;;;;;;3.42;3.13;;;;;;;-145.63;100.00;61273.97;5066836;28;20027;-67
2024/01/01 01:59:43;;;;;;;4.32;3.90;;;;;;;-145.63;100.00;61273.97;5070899;28;20028;-67
2024/01/01 02:02:12;;;;;;;4.13;3.70;;;;;;;-145.63;100.00;61273.97;5068754;28;20086;-67
2024/01/01 02:04:38;;;;;;;4.95;3.70;;;;;;;-145.63;100.00;61273.97;5085265;28;20032;-67
2024/01/01 02:07:04;;;;;;;3.90;3.33;;;;;;;-145.63;100.00;61273.97;5088951;28;20038;-66
2024/01/01 02:09:31;;;;;;;3.88;3.47;;;;;;;-145.63;100.00;61273.97;5088913;28;20276;-66
2024/01/01 02:11:57;;;;;;;3.60;3.30;;;;;;;-145.63;100.00;61273.97;5088991;28;20040;-67
2024/01/01 02:14:26;;;;;;;4.43;3.60;;;;;;;-145.63;100.00;61273.97;5089001;28;20103;-67
2024/01/01 02:16:52;;;;;;;3.90;3.50;;;;;;;-145.63;100.00;61273.97;5088700;28;20111;-67
2024/01/01 02:19:21;;;;;;;3.97;3.05;;;;;;;-145.63;100.00;61273.97;5057615;28;20135;-67
2024/01/01 02:21:51;;;;;;;3.40;3.10;;;;;;;-145.63;100.00;61273.97;5077309;28;20031;-67
2024/01/01 02:24:18;;;;;;;3.35;2.97;;;;;;;-145.63;100.00;61273.97;5083889;28;20028;-67
2024/01/01 02:26:44;;;;;;;3.47;3.17;;;;;;;-145.63;100.00;61273.97;5068860;28;20109;-67
2024/01/01 02:29:11;;;;;;;4.22;3.75;;;;;;;-145.63;100.00;61273.97;5088661;28;20027;-68
2024/01/01 02:31:37;;;;;;;5.68;3.97;;;;;;;-145.63;100.00;61273.97;5072958;28;20025;-67
2024/01/01 02:34:03;;;;;;;4.97;4.32;;;;;;;-145.63;100.00;61273.97;5079596;28;20028;-66
2024/01/01 02:36:29;;;;;;;4.45;4.00;;;;;;;-145.63;100.00;61273.97;5082438;28;20040;-67
2024/01/01 02:38:55;;;;;;;5.05;3.95;;;;;;;-145.63;100.00;61273.97;5070275;28;20096;-67
2024/01/01 02:41:21;;;;;;;5.75;4.57;;;;;;;-145.63;100.00;61273.97;5088656;28;20079;-67
2024/01/01 02:43:48;;;;;;;5.25;4.55;;;;;;;-145.63;100.00;61273.97;5106784;28;20110;-66
2024/01/01 02:46:13;;;;;;;5.47;4.10;;;;;;;-145.63;100.00;61273.97;5096275;28;20028;-66
2024/01/01 02:48:39;;;;;;;3.97;3.00;;;;;;;-145.63;100.00;61273.97;5062791;28;20036;-66
2024/01/01 02:51:05;;;;;;;6.18;4.00;;;;;;;-145.63;100.00;61273.97;5088508;28;20272;-66
2024/01/01 02:53:32;;;;;;;3.95;3.30;;;;;;;-145.63;100.00;61273.97;5088680;28;20025;-67
2024/01/01 02:55:58;;;;;;;3.65;3.22;;;;;;;-145.63;100.00;61273.97;5069984;28;20142;-67
2024/01/01 02:58:24;;;;;;;4.43;3.58;;;;;;;-145.63;100.00;61273.97;5082272;28;20033;-67
2024/01/01 03:00:49;;;;;;;3.03;2.72;;;;;;;-145.63;100.00;61273.97;5088535;28;20024;-67
2024/01/01 03:03:15;;;;;;;3.40;2.80;;;;;;;-145.63;100.00;61273.97;5084460;28;20025;-67
2024/01/01 03:05:41;;;;;;;3.28;2.97;;;;;;;-145.63;100.00;61273.97;5068627;28;20021;-66
2024/01/01 03:08:08;;;;;;;4.03;3.45;;;;;;;-145.63;100.00;61273.97;5087541;28;20025;-66
2024/01/01 03:10:33;;;;;;;4.38;3.03;;;;;;;-145.63;100.00;61273.97;5084431;28;20205;-67
2024/01/01 03:12:59;;;;;;;3.13;2.83;;;;;;;-145.63;100.00;61273.97;5085460;28;20032;-66
2024/01/01 03:15:25;;;;;;;4.05;2.60;;;;;;;-145.63;100.00;61273.97;5085029;28;20299;-66
2024/01/01 03:17:51;;;;;;;4.18;2.67;;;;;;;-145.63;100.00;61273.97;5084268;28;20316;-67
2024/01/01 03:20:16;;;;;;;2.53;2.33;;;;;;;-145.63;100.00;61273.97;5065146;28;20056;-66
2024/01/01 03:22:42;;;;;;;3.33;2.88;;;;;;;-145.63;100.00;61273.97;5080836;28;20048;-66
2024/01/01 03:25:09;;;;;;;3.08;2.80;;;;;;;-145.63;100.00;61273.97;5073621;28;20060;-66
2024/01/01 03:27:35;;;;;;;3.08;2.78;;;;;;;-145.63;100.00;61273.97;5071508;28;20028;-66
2024/01/01 03:30:05;;;;;;;3.53;2.90;;;;;;;-145.63;100.00;61273.97;5064930;28;20108;-67
2024/01/01 03:32:40;;;;;;;4.20;2.75;;;;;;;-145.63;100.00;61273.97;5064793;28;20044;-66
2024/01/01 03:35:06;;;;;;;3.20;2.90;;;;;;;-145.63;100.00;61273.97;5103223;28;20068;-67
2024/01/01 03:37:32;;;;;;;3.75;2.90;;;;;;;-145.63;100.00;61273.97;5090368;28;20133;-66
2024/01/01 03:39:57;;;;;;;3.35;3.05;;;;;;;-145.63;100.00;61273.97;5075085;28;20035;-67
2024/01/01 03:42:23;;;;;;;3.95;2.92;;;;;;;-145.63;100.00;61273.97;5069360;28;20032;-67
2024/01/01 03:44:48;;;;;;;3.20;2.90;;;;;;;-145.63;100.00;61273.97;5084276;28;20043;-66
2024/01/01 03:47:14;;;;;;;5.40;3.05;;;;;;;-145.63;100.00;61273.97;5064590;28;20031;-67
2024/01/01 03:49:40;;;;;;;3.83;2.78;;;;;;;-145.63;100.00;61273.97;5079861;28;20024;-67
2024/01/01 03:52:06;;;;;;;3.30;3.00;;;;;;;-145.63;100.00;61273.97;5084116;28;20355;-67
2024/01/01 03:54:32;;;;;;;3.53;3.00;;;;;;;-145.63;100.00;61273.97;5078576;28;20028;-67
2024/01/01 03:56:58;;;;;;;3.35;3.05;;;;;;;-145.63;100.00;61273.97;5065853;28;20209;-67
2024/01/01 03:59:24;;;;;;;3.67;2.95;;;;;;;-145.63;100.00;61273.97;5084469;28;20035;-67
2024/01/01 04:01:50;;;;;;;3.38;2.97;;;;;;;-145.63;100.00;61273.97;5084468;28;20028;-67
2024/01/01 04:04:15;;;;;;;4.40;3.28;;;;;;;-145.63;100.00;61273.97;5072070;28;20032;-67
2024/01/01 04:06:41;;;;;;;3.80;3.22;;;;;;;-145.63;100.00;61273.97;5071292;28;20027;-66
2024/01/01 04:09:07;;;;;;;3.33;3.03;;;;;;;-145.63;100.00;61273.97;5083890;28;20025;-67
2024/01/01 04:11:32;;;;;;;3.22;2.90;;;;;;;-145.63;100.00;61273.97;5084307;28;20047;-67
2024/01/01 04:13:58;;;;;;;3.17;2.88;;;;;;;-145.63;100.00;61273.97;5084154;28;20029;-66
2024/01/01 04:16:24;;;;;;;3.55;3.05;;;;;;;-145.63;100.00;61273.97;5070945;28;20099;-67
2024/01/01 04:18:50;;;;;;;3.05;2.78;;;;;;;-145.63;100.00;61273.97;5072247;28;20236;-67
2024/01/01 04:21:16;;;;;;;3.38;2.80;;;;;;;-145.63;100.00;61273.97;5080098;28;20086;-67
2024/01/01 04:23:41;;;;;;;3.17;2.65;;;;;;;-145.63;100.00;61273.97;5064037;28;20028;-66
2024/01/01 04:26:07;;;;;;;3.50;3.03;;;;;;;-145.63;100.00;61273.97;5082534;28;20073;-66
2024/01/01 04:28:33;;;;;;;3.70;3.05;;;;;;;-145.63;100.00;61273.97;5068535;28;20029;-67
2024/01/01 04:30:58;;;;;;;3.20;2.90;;;;;;;-145.63;100.00;61273.97;5073302;28;20043;-67
2024/01/01 04:33:24;;;;;;;3.10;2.80;;;;;;;-145.63;100.00;61273.97;5079088;28;20033;-67
2024/01/01 04:35:50;;;;;;;3.38;3.03;;;;;;;-145.63;100.00;61273.97;5063722;28;20048;-67
2024/01/01 04:38:16;;;;;;;4.38;2.90;;;;;;;-145.63;100.00;61273.97;5063351;28;20040;-67
2024/01/01 04:40:41;;;;;;;3.95;2.90;;;;;;;-145.63;100.00;61273.97;5063679;28;20029;-66
2024/01/01 04:43:07;;;;;;;3.85;3.20;;;;;;;-145.63;100.00;61273.97;5073870;28;20024;-66
2024/01/01 04:45:35;;;;;;;3.80;3.25;;;;;;;-145.63;100.00;61273.97;5077904;28;20094;-66
2024/01/01 04:48:02;;;;;;;3.00;2.70;;;;;;;-145.63;100.00;61273.97;5064486;28;20041;-68
2024/01/01 04:50:28;;;;;;;3.10;2.80;;;;;;;-145.63;100.00;61273.97;5083153;28;20035;-67
2024/01/01 04:52:54;;;;;;;3.70;3.30;;;;;;;-145.63;100.00;61273.97;5081899;28;20040;-67
2024/01/01 04:55:20;;;;;;;3.17;2.88;;;;;;;-145.63;100.00;61273.97;5071079;28;20067;-67
2024/01/01 04:57:46;;;;;;;3.75;3.10;;;;;;;-145.63;100.00;61273.97;5070817;28;20067;-66
2024/01/01 05:00:13;;;;;;;3.55;3.03;;;;;;;-145.63;100.00;61273.97;5082908;28;20040;-66
2024/01/01 05:02:39;;;;;;;3.33;2.92;;;;;;;-145.63;100.00;61273.97;5083133;28;20077;-67
2024/01/01 05:05:05;;;;;;;3.97;3.10;;;;;;;-145.63;100.00;61273.97;5064940;28;20033;-67
2024/01/01 05:07:31;;;;;;;3.53;3.10;;;;;;;-145.63;100.00;61273.97;5077243;28;20062;-67
2024/01/01 05:09:57;;;;;;;2.95;2.72;;;;;;;-145.63;100.00;61273.97;5083867;28;20021;-67
2024/01/01 05:12:23;;;;;;;4.32;3.60;;;;;;;-145.63;100.00;61273.97;5082986;28;20028;-67
2024/01/01 05:14:48;;;;;;;3.40;2.85;;;;;;;-145.63;100.00;61273.97;5082971;28;20031;-67
2024/01/01 05:17:14;;;;;;;4.88;2.92;;;;;;;-145.63;100.00;61273.97;5063504;28;20024;-67
2024/01/01 05:19:39;;;;;;;3.53;3.22;;;;;;;-145.63;100.00;61273.97;5077576;28;20024;-67
2024/01/01 05:22:06;;;;;;;3.78;3.25;;;;;;;-145.63;100.00;61273.97;5072972;28;20223;-67
2024/01/01 05:24:31;;;;;;;3.55;3.15;;;;;;;-145.63;100.00;61273.97;5067649;28;20032;-67
2024/01/01 05:26:57;;;;;;;4.45;3.60;;;;;;;-145.63;100.00;61273.97;5082270;28;20332;-66
2024/01/01 05:29:23;;;;;;;3.50;3.17;;;;;;;-145.63;100.00;61273.97;5062625;28;20021;-67
2024/01/01 05:31:48;;;;;;;3.95;3.13;;;;;;;-145.63;100.00;61273.97;5078655;28;20020;-67
2024/01/01 05:34:16;;;;;;;3.63;3.22;;;;;;;-145.63;100.00;61273.97;5093677;28;20028;-68
2024/01/01 05:36:42;;;;;;;3.75;3.33;;;;;;;-145.63;100.00;61273.97;5096498;28;20036;-66
2024/01/01 05:39:08;;;;;;;3.50;3.20;;;;;;;-145.63;100.00;61273.97;5080816;28;20313;-67
2024/01/01 05:41:33;;;;;;;3.83;3.40;;;;;;;-145.63;100.00;61273.97;5062577;28;20021;-67
2024/01/01 05:43:59;;;;;;;3.80;3.20;;;;;;;-145.63;100.00;61273.97;5079594;28;20020;-68
2024/01/01 05:46:24;;;;;;;3.42;3.08;;;;;;;-145.63;100.00;61273.97;5070060;28;20049;-68
2024/01/01 05:48:50;;;;;;;2.95;2.65;;;;;;;-145.63;100.00;61273.97;5069614;28;20229;-67
2024/01/01 05:51:16;;;;;;;3.63;2.97;;;;;;;-145.63;100.00;61273.97;5082332;28;20064;-67
2024/01/01 05:53:42;;;;;;;3.20;2.88;;;;;;;-145.63;100.00;61273.97;5082481;28;20028;-66
2024/01/01 05:56:08;;;;;;;3.58;2.88;;;;;;;-145.63;100.00;61273.97;5064038;28;20104;-67
2024/01/01 05:58:33;;;;;;;3.90;3.38;;;;;;;-145.63;100.00;61273.97;5075711;28;20185;-67
2024/01/01 06:00:59;;;;;;;3.35;3.05;;;;;;;-145.63;100.00;61273.97;5082162;28;20354;-66
2024/01/01 06:03:25;;;;;;;3.80;3.10;;;;;;;-145.63;100.00;61273.97;5078390;28;20037;-66
2024/01/01 06:05:52;;;;;;;3.50;3.17;;;;;;;-145.63;100.00;61273.97;5062388;28;20020;-66
2024/01/01 06:08:18;;;;;;;3.17;2.88;;;;;;;-145.63;100.00;61273.97;5081531;28;20024;-67
2024/01/01 06:10:44;;;;;;;3.28;2.97;;;;;;;-145.63;100.00;61273.97;5082376;28;20043;-67
2024/01/01 06:13:09;;;;;;;3.88;3.40;;;;;;;-145.63;100.00;61273.97;5083016;28;20024;-66
2024/01/01 06:15:35;;;;;;;3.80;3.40;;;;;;;-145.63;100.00;61273.97;5082778;28;20042;-67
2024/01/01 06:18:01;;;;;;;3.95;3.38;;;;;;;-145.63;100.00;61273.97;5083246;28;20024;-67
2024/01/01 06:20:26;;;;;;;4.07;3.67;;;;;;;-145.63;100.00;61273.97;5102153;28;20111;-67
2024/01/01 06:22:53;;;;;;;3.70;3.35;;;;;;;-145.63;100.00;61273.97;5086283;28;20325;-67
2024/01/01 06:25:19;;;;;;;3.63;3.33;;;;;;;-145.63;100.00;61273.97;5093328;28;20369;-67
2024/01/01 06:27:44;;;;;;;5.97;3.63;;;;;;;-145.63;100.00;61273.97;5095930;28;20088;-67
2024/01/01 06:30:10;;;;;;;3.92;3.53;;;;;;;-145.63;100.00;61273.97;5080095;28;20036;-67
2024/01/01 06:32:36;;;;;;;3.67;3.00;;;;;;;-145.63;100.00;61273.97;5061843;28;20076;-67
2024/01/01 06:35:01;;;;;;;4.43;3.47;;;;;;;-145.63;100.00;61273.97;5077589;28;20036;-66
2024/01/01 06:37:29;;;;;;;4.68;3.40;;;;;;;-145.63;100.00;61273.97;5049143;28;20041;-66
2024/01/01 06:39:55;;;;;;;3.53;3.13;;;;;;;-145.63;100.00;61273.97;5048797;28;20032;-67
2024/01/01 06:42:21;;;;;;;3.97;3.60;;;;;;;-145.63;100.00;61273.97;5057951;28;20209;-67
2024/01/01 06:44:46;;;;;;;4.80;3.78;;;;;;;-145.63;100.00;61273.97;5043278;28;20021;-67
2024/01/01 06:47:12;;;;;;;4.45;3.45;;;;;;;-145.63;100.00;61273.97;5064011;28;20036;-66
2024/01/01 06:49:37;;;;;;;4.10;3.70;;;;;;;-145.63;100.00;61273.97;5070835;28;20032;-67
2024/01/01 06:52:06;;;;;;;3.67;3.17;;;;;;;-145.63;100.00;61273.97;5074321;28;20020;-67
2024/01/01 06:54:31;;;;;;;4.03;3.63;;;;;;;-145.63;100.00;61273.97;5081236;28;20066;-67
2024/01/01 06:56:57;;;;;;;4.65;3.45;;;;;;;-145.63;100.00;61273.97;5065537;28;20048;-67
2024/01/01 06:59:27;;;;;;;4.78;4.10;;;;;;;-145.63;100.00;61273.97;5045766;28;20086;-67
2024/01/01 07:01:53;;;;;;;4.13;3.73;;;;;;;-145.63;100.00;61273.97;5060816;28;20321;-67
2024/01/01 07:04:19;;;;;;;4.35;3.95;;;;;;;-145.63;100.00;61273.97;5054265;28;20018;-66
2024/01/01 07:06:45;;;;;;;4.65;4.00;;;;;;;-145.63;100.00;61273.97;5050936;28;20044;-66
2024/01/01 07:09:11;;;;;;;5.00;3.67;;;;;;;-145.63;100.00;61273.97;5065010;28;20065;-68
2024/01/01 07:11:36;;;;;;;5.15;3.95;;;;;;;-145.63;100.00;61273.97;5065071;28;20025;-66
2024/01/01 07:14:03;;;;;;;4.00;3.47;;;;;;;-145.63;100.00;61273.97;5047317;28;20035;-67
2024/01/01 07:16:29;;;;;;;4.60;3.78;;;;;;;-145.63;100.00;61273.97;5064765;28;20080;-67
2024/01/01 07:18:54;;;;;;;3.47;3.17;;;;;;;-145.63;100.00;61273.97;5057596;28;20376;-66
2024/01/01 07:21:20;;;;;;;4.55;3.50;;;;;;;-145.63;100.00;61273.97;5029560;28;20057;-67
2024/01/01 07:23:46;;;;;;;3.83;3.40;;;;;;;-145.63;100.00;61273.97;5065061;28;20166;-66
2024/01/01 07:26:12;;;;;;;4.43;3.42;;;;;;;-145.63;100.00;61273.97;5082616;28;20025;-68
2024/01/01 07:28:37;;;;;;;3.80;3.40;;;;;;;-145.63;100.00;61273.97;5071332;28;20029;-66
2024/01/01 07:31:03;;;;;;;4.47;3.42;;;;;;;-145.63;100.00;61273.97;5056351;28;20029;-68
2024/01/01 07:33:29;;;;;;;3.88;3.47;;;;;;;-145.63;100.00;61273.97;5048278;28;20040;-68
2024/01/01 07:35:54;;;;;;;4.60;3.80;;;;;;;-145.63;100.00;61273.97;5064908;28;20198;-66
2024/01/01 07:38:20;;;;;;;5.55;4.20;;;;;;;-145.63;100.00;61273.97;5045485;28;20029;-68
2024/01/01 07:40:46;;;;;;;3.80;3.42;;;;;;;-145.63;100.00;61273.97;5058778;28;20032;-67
2024/01/01 07:43:11;;;;;;;3.83;3.42;;;;;;;-145.63;100.00;61273.97;5055176;28;20021;-68
2024/01/01 07:45:37;;;;;;;4.20;3.80;;;;;;;-145.63;100.00;61273.97;5031621;28;20025;-67
2024/01/01 07:48:04;;;;;;;4.70;3.58;;;;;;;-145.63;100.00;61273.97;5064720;28;20410;-67
2024/01/01 07:50:30;;;;;;;4.88;3.50;;;;;;;-145.63;100.00;61273.97;5059449;28;20317;-67
2024/01/01 07:52:55;;;;;;;5.55;3.65;;;;;;;-145.63;100.00;61273.97;5064445;28;20031;-67
2024/01/01 07:55:21;;;;;;;4.40;3.80;;;;;;;-145.63;100.00;61273.97;5053259;28;20305;-66
2024/01/01 07:57:47;;;;;;;4.88;4.03;;;;;;;-145.63;100.00;61273.97;5050280;28;20310;-67
2024/01/01 08:00:13;;;;;;;4.40;4.00;;;;;;;-145.63;100.00;61273.97;5064251;28;20028;-68
2024/01/01 08:02:39;;;;;;;5.38;4.68;;;;;;;-145.63;100.00;61273.97;5064342;28;20028;-67
2024/01/01 08:05:05;;;;;;;4.25;3.65;;;;;;;-145.63;100.00;61273.97;5047850;28;20021;-67
2024/01/01 08:07:31;;;;;;;4.00;3.60;;;;;;;-145.63;100.00;61273.97;5056013;28;20032;-67
2024/01/01 08:09:56;;;;;;;4.28;3.88;;;;;;;-145.63;100.00;61273.97;5064298;28;20025;-68
2024/01/01 08:12:22;;;;;;;3.97;3.58;;;;;;;-145.63;100.00;61273.97;5063999;28;20021;-67
2024/01/01 08:14:48;;;;;;;5.70;4.43;;;;;;;-145.63;100.00;61273.97;5063979;28;20071;-68
2024/01/01 08:17:14;;;;;;;4.28;3.88;;;;;;;-145.63;100.00;61273.97;5046261;28;20254;-67
2024/01/01 08:19:39;;;;;;;4.78;4.22;;;;;;;-145.63;100.00;61273.97;5057027;28;20040;-68
2024/01/01 08:22:05;;;;;;;6.30;4.43;;;;;;;-145.63;100.00;61273.97;5055755;28;20186;-68
2024/01/01 08:24:31;;;;;;;3.92;3.42;;;;;;;-145.63;100.00;61273.97;5047295;28;20029;-67
2024/01/01 08:26:56;;;;;;;4.85;4.22;;;;;;;-145.63;100.00;61273.97;5063798;28;20028;-67
2024/01/01 08:29:22;;;;;;;9.98;8.10;;;;;;;-145.63;100.00;61273.97;5045221;28;20052;-67
2024/01/01 08:31:48;;;;;;;4.63;3.88;;;;;;;-145.63;100.00;61273.97;5057718;28;20055;-67
2024/01/01 08:34:13;;;;;;;4.38;3.97;;;;;;;-145.63;100.00;61273.97;5054416;28;20029;-68
2024/01/01 08:36:39;;;;;;;6.68;5.80;;;;;;;-145.63;100.00;61273.97;5062325;28;20055;-67
2024/01/01 08:39:05;;;;;;;5.70;4.60;;;;;;;-145.63;100.00;61273.97;5083734;28;20080;-67
2024/01/01 08:41:30;;;;;;;4.35;3.72;;;;;;;-145.63;100.00;61273.97;5063672;28;20033;-67
2024/01/01 08:43:59;;;;;;;5.25;4.30;;;;;;;-145.63;100.00;61273.97;5078649;28;20031;-68
2024/01/01 08:46:26;;;;;;;4.40;3.90;;;;;;;-145.63;100.00;61273.97;5072529;28;20024;-67
2024/01/01 08:48:52;;;;;;;5.22;3.85;;;;;;;-145.63;100.00;61273.97;5069200;28;20240;-68
2024/01/01 08:51:21;;;;;;;4.40;4.00;;;;;;;-145.63;100.00;61273.97;5083250;28;20044;-66
2024/01/01 08:53:46;;;;;;;5.03;4.05;;;;;;;-145.63;100.00;61273.97;5083442;28;20494;-67
2024/01/01 08:56:12;;;;;;;4.25;3.72;;;;;;;-145.63;100.00;61273.97;5065988;28;20028;-68
2024/01/01 08:58:38;;;;;;;5.25;4.22;;;;;;;-145.63;100.00;61273.97;5075444;28;20308;-67
2024/01/01 09:01:05;;;;;;;4.50;3.88;;;;;;;-145.63;100.00;61273.97;5083235;28;20032;-68
2024/01/01 09:03:31;;;;;;;6.57;4.22;;;;;;;-145.63;100.00;61273.97;5061939;28;20033;-68
2024/01/01 09:05:58;;;;;;;4.20;3.80;;;;;;;-145.63;100.00;61273.97;5063046;28;20029;-67
2024/01/01 09:08:28;;;;;;;5.95;5.00;;;;;;;-145.63;100.00;61273.97;5082292;28;20036;-68
2024/01/01 09:10:54;;;;;;;5.28;4.30;;;;;;;-145.63;100.00;61273.97;5070006;28;20360;-68
2024/01/01 09:13:19;;;;;;;4.88;3.90;;;;;;;-145.63;100.00;61273.97;5082932;28;20028;-68
2024/01/01 09:15:45;;;;;;;4.93;3.78;;;;;;;-145.63;100.00;61273.97;5077907;28;20017;-68
2024/01/01 09:18:11;;;;;;;5.88;4.38;;;;;;;-145.63;100.00;61273.97;5062937;28;20021;-68
2024/01/01 09:20:38;;;;;;;4.47;4.05;;;;;;;-145.63;100.00;61273.97;5082851;28;20028;-67
2024/01/01 09:23:05;;;;;;;5.82;4.70;;;;;;;-145.63;100.00;61273.97;5082881;28;20320;-68
2024/01/01 09:25:30;;;;;;;4.60;4.10;;;;;;;-145.63;100.00;61273.97;5071516;28;20179;-68
2024/01/01 09:27:56;;;;;;;4.90;4.03;;;;;;;-145.63;100.00;61273.97;5084575;28;20033;-68
2024/01/01 09:30:21;;;;;;;3.90;3.50;;;;;;;-145.63;100.00;61273.97;5080978;28;20027;-68
2024/01/01 09:32:47;;;;;;;5.05;4.38;;;;;;;-145.63;100.00;61273.97;5044695;28;20029;-68
2024/01/01 09:35:13;;;;;;;3.95;3.55;;;;;;;-145.63;100.00;61273.97;5095135;28;20127;-69
2024/01/01 09:37:39;;;;;;;4.65;4.00;;;;;;;-145.63;100.00;61273.97;5070484;28;20096;-69
2024/01/01 09:40:05;;;;;;;4.80;4.00;;;;;;;-145.63;100.00;61273.97;5070042;28;20197;-69
2024/01/01 09:42:31;;;;;;;3.95;3.40;;;;;;;-145.63;100.00;61273.97;5079732;28;20236;-67
2024/01/01 09:44:57;;;;;;;6.18;3.85;;;;;;;-145.63;100.00;61273.97;5062583;28;20029;-68
2024/01/01 09:47:22;;;;;;;4.90;4.32;;;;;;;-145.63;100.00;61273.97;5080530;28;20025;-69
2024/01/01 09:49:48;;;;;;;4.00;3.60;;;;;;;-145.63;100.00;61273.97;5078726;28;20074;-69
2024/01/01 09:52:14;;;;;;;4.43;3.80;;;;;;;-145.63;100.00;61273.97;5082403;28;20024;-68
2024/01/01 09:54:41;;;;;;;3.75;3.35;;;;;;;-145.63;100.00;61273.97;5078436;28;20059;-68
2024/01/01 09:57:07;;;;;;;4.85;4.22;;;;;;;-145.63;100.00;61273.97;5062672;28;20064;-69
2024/01/01 09:59:37;;;;;;;3.97;3.58;;;;;;;-145.63;100.00;61273.97;5081907;28;20113;-68
2024/01/01 10:02:07;;;;;;;4.90;4.40;;;;;;;-145.63;100.00;61273.97;5081084;28;20028;-68
2024/01/01 10:04:37;;;;;;;4.30;3.80;;;;;;;-145.63;100.00;61273.97;5073478;28;20029;-68
2024/01/01 10:07:03;;;;;;;5.70;4.35;;;;;;;-145.63;100.00;61273.97;5081007;28;20301;-68
2024/01/01 10:09:31;;;;;;;5.13;4.38;;;;;;;-145.63;100.00;61273.97;5082003;28;20035;-68
2024/01/01 10:12:09;;;;;;;5.40;4.35;;;;;;;-145.63;100.00;61273.97;5082368;28;20028;-69
2024/01/01 10:14:53;;;;;;;4.82;4.35;;;;;;;-145.63;100.00;61273.97;5082234;28;20052;-68
2024/01/01 10:17:19;;;;;;;4.50;3.55;;;;;;;-145.63;100.00;61273.97;5064871;28;20029;-68
2024/01/01 10:19:53;;;;;;;4.28;3.88;;;;;;;-145.63;100.00;61273.97;5076690;28;20039;-69
2024/01/01 10:22:20;;;;;;;4.53;3.92;;;;;;;-145.63;100.00;61273.97;5077016;28;20052;-68
2024/01/01 10:24:52;;;;;;;4.43;4.03;;;;;;;-145.63;100.00;61273.97;5070290;28;20204;-68
2024/01/01 10:27:20;;;;;;;5.40;4.40;;;;;;;-145.63;100.00;61273.97;5085561;28;20254;-67
2024/01/01 10:29:49;;;;;;;13.07;10.75;;;;;;;-145.63;100.00;61273.97;5065685;28;20056;-68
2024/01/01 10:32:18;;;;;;;13.57;11.13;;;;;;;-145.63;100.00;61273.97;5082445;28;20028;-69
2024/01/01 10:34:46;;;;;;;6.10;4.70;;;;;;;-145.63;100.00;61273.97;5073464;28;20028;-68
2024/01/01 10:37:14;;;;;;;8.32;5.25;;;;;;;-145.63;100.00;61273.97;5073367;28;20070;-68
2024/01/01 10:39:42;;;;;;;7.30;5.20;;;;;;;-145.63;100.00;61273.97;5064593;28;20037;-68
2024/01/01 10:42:09;;;;;;;5.20;4.70;;;;;;;-145.63;100.00;61273.97;5065745;28;20021;-68
2024/01/01 10:44:35;;;;;;;6.38;4.90;;;;;;;-145.63;100.00;61273.97;5084651;28;20254;-69
2024/01/01 10:47:06;;;;;;;5.53;4.60;;;;;;;-145.63;100.00;61273.97;5071022;28;20025;-68
2024/01/01 10:49:32;;;;;;;5.97;4.90;;;;;;;-145.63;100.00;61273.97;5075576;28;20043;-68
2024/01/01 10:52:30;;;;;;;5.97;5.07;;;;;;;-145.63;100.00;61273.97;5085625;28;20029;-68
2024/01/01 10:55:11;;;;;;;8.00;7.18;;;;;;;-145.63;100.00;61273.97;5080001;28;20033;-68
2024/01/01 10:57:45;;;;;;;5.70;5.15;;;;;;;-145.63;100.00;61273.97;5068383;28;20226;-68
2024/01/01 11:00:38;;;;;;;5.55;3.97;;;;;;;-145.63;100.00;61273.97;5085371;28;20025;-68
2024/01/01 11:03:04;;;;;;;4.85;4.05;;;;;;;-145.63;100.00;61273.97;5028338;28;20108;-68
2024/01/01 11:05:34;;;;;;;5.15;4.40;;;;;;;-145.63;100.00;61273.97;5083891;28;20100;-68